Time;durP1;ratioP1;P1;durP2;ratioP2;P2;SDS_P1;SDS_P2;PMS_P1;PMS_P2;Temp;Humidity;BMP_temperature;BMP_pressure;BME280_temperature;BME280_humidity;BME280_pressure;Samples;Min_cycle;Max_cycle;Signal;HPM_P1;HPM_P2
2022/03/14 00:00:27;;;;;;;;;;;;;;;17.32;57.22;100163.72;2081785;28;19924;-55
2022/03/14 00:01:28;;;;;;;;;;;;;;;17.32;57.17;100161.00;2085095;28;20504;-56
2022/03/14 00:02:29;;;;;;;;;;;;;;;17.31;57.09;100164.75;2092832;28;20234;-55
2022/03/14 00:03:32;;;;;;;;;;;;;;;17.31;57.22;100162.03;2093857;28;19916;-56
2022/03/14 00:04:34;;;;;;;;;;;;;;;17.30;57.15;100157.59;2088981;28;19958;-57
2022/03/14 00:05:35;;;;;;;;;;;;;;;17.29;57.13;100158.56;2089811;28;19949;-55
2022/03/14 00:06:35;;;;;;;;;;;;;;;17.28;57.23;100156.84;2089745;28;19920;-55
2022/03/14 00:07:36;;;;;;;;;;;;;;;17.29;57.28;100159.41;2091490;28;19912;-55
2022/03/14 00:08:40;;;;;;;;;;;;;;;17.29;57.03;100155.84;2094040;28;20037;-55
2022/03/14 00:09:41;;;;;;;;;;;;;;;17.28;57.34;100145.97;2083347;28;19974;-56
2022/03/14 00:10:45;;;;;;;;;;;;;;;17.27;57.30;100150.56;2085293;28;19962;-56
2022/03/14 00:11:46;;;;;;;;;;;;;;;17.27;57.22;100152.38;2092536;28;19959;-56
2022/03/14 00:12:48;;;;;;;;;;;;;;;17.26;57.26;100150.69;2091607;28;19920;-56
2022/03/14 00:13:50;;;;;;;;;;;;;;;17.27;57.09;100149.66;2090637;28;19920;-56
2022/03/14 00:14:53;;;;;;;;;;;;;;;17.25;57.36;100147.09;2092533;28;20072;-56
2022/03/14 00:15:55;;;;;;;;;;;;;;;17.25;57.27;100151.69;2090644;28;19965;-55
2022/03/14 00:16:56;;;;;;;;;;;;;;;17.24;57.17;100149.94;2089456;28;19947;-55
2022/03/14 00:17:58;;;;;;;;;;;;;;;17.25;57.38;100140.78;2089465;28;19917;-55
2022/03/14 00:18:59;;;;;;;;;;;;;;;17.24;57.22;100144.50;2091022;28;19970;-55
2022/03/14 00:20:02;;;;;;;;;;;;;;;17.25;57.28;100144.38;2090705;28;20280;-56
2022/03/14 00:21:06;;;;;;;;;;;;;;;17.26;57.39;100153.41;2086538;28;19993;-56
2022/03/14 00:22:06;;;;;;;;;;;;;;;17.25;57.05;100147.09;2090358;28;19924;-56
2022/03/14 00:23:07;;;;;;;;;;;;;;;17.26;57.31;100148.81;2092832;28;19912;-56
2022/03/14 00:24:09;;;;;;;;;;;;;;;17.26;57.27;100154.25;2089740;28;19927;-55
2022/03/14 00:25:09;;;;;;;;;;;;;;;17.27;57.18;100149.66;2092574;28;19912;-55
2022/03/14 00:26:11;;;;;;;;;;;;;;;17.25;57.11;100140.78;2088865;28;20527;-55
2022/03/14 00:27:12;;;;;;;;;;;;;;;17.27;57.35;100149.66;2092433;28;19919;-55
2022/03/14 00:28:12;;;;;;;;;;;;;;;17.26;57.38;100148.81;2085955;28;19920;-56
2022/03/14 00:29:12;;;;;;;;;;;;;;;17.28;57.36;100151.41;2096316;28;19947;-56
2022/03/14 00:30:13;;;;;;;;;;;;;;;17.30;57.09;100149.41;2076116;28;19916;-56
2022/03/14 00:31:14;;;;;;;;;;;;;;;17.29;57.20;100147.66;2079088;28;20354;-55
2022/03/14 00:32:15;;;;;;;;;;;;;;;17.29;57.09;100145.81;2097655;28;20007;-56
2022/03/14 00:33:15;;;;;;;;;;;;;;;17.28;57.27;100146.81;2086779;28;19920;-56
2022/03/14 00:34:15;;;;;;;;;;;;;;;17.30;57.00;100146.69;2092797;28;20545;-56
2022/03/14 00:35:16;;;;;;;;;;;;;;;17.30;57.08;100146.69;2085146;28;20143;-55
2022/03/14 00:36:16;;;;;;;;;;;;;;;17.31;57.07;100151.13;2087676;28;20446;-55
2022/03/14 00:37:17;;;;;;;;;;;;;;;17.29;56.93;100147.66;2093207;28;20427;-55
2022/03/14 00:38:18;;;;;;;;;;;;;;;17.29;57.05;100143.06;2087515;28;20081;-55
2022/03/14 00:39:18;;;;;;;;;;;;;;;17.29;57.00;100144.94;2091340;28;19921;-54
2022/03/14 00:40:18;;;;;;;;;;;;;;;17.31;57.18;100142.94;2087684;28;19919;-53
2022/03/14 00:41:19;;;;;;;;;;;;;;;17.30;56.88;100141.25;2087922;28;20151;-55
2022/03/14 00:42:22;;;;;;;;;;;;;;;17.29;56.96;100131.31;2094851;28;19919;-54
2022/03/14 00:43:23;;;;;;;;;;;;;;;17.30;57.00;100133.06;2082002;28;19923;-55
2022/03/14 00:44:23;;;;;;;;;;;;;;;17.29;57.07;100134.91;2086390;28;19917;-54
2022/03/14 00:45:24;;;;;;;;;;;;;;;17.29;56.94;100136.78;2093565;28;19959;-54
2022/03/14 00:46:24;;;;;;;;;;;;;;;17.29;57.01;100140.34;2090523;28;19916;-55
2022/03/14 00:47:24;;;;;;;;;;;;;;;17.28;57.09;100135.91;2088707;28;19916;-54
2022/03/14 00:48:25;;;;;;;;;;;;;;;17.28;57.24;100135.06;2088631;28;19916;-54
2022/03/14 00:49:26;;;;;;;;;;;;;;;17.29;57.13;100136.78;2090320;28;19927;-55
2022/03/14 00:50:26;;;;;;;;;;;;;;;17.26;56.95;100134.31;2092708;28;20256;-56
2022/03/14 00:51:26;;;;;;;;;;;;;;;17.26;57.19;100137.06;2089826;28;20218;-55
2022/03/14 00:52:27;;;;;;;;;;;;;;;17.26;57.19;100137.06;2094803;28;19916;-55
2022/03/14 00:53:27;;;;;;;;;;;;;;;17.23;57.04;100130.00;2087683;28;20553;-55
2022/03/14 00:54:27;;;;;;;;;;;;;;;17.24;57.10;100128.16;2088794;28;19908;-55
2022/03/14 00:55:28;;;;;;;;;;;;;;;17.25;57.31;100132.63;2084773;28;20447;-55
2022/03/14 00:56:28;;;;;;;;;;;;;;;17.23;57.19;100130.00;2079883;28;21053;-54
2022/03/14 00:57:29;;;;;;;;;;;;;;;17.21;57.21;100128.44;2091306;28;19916;-54
2022/03/14 00:58:30;;;;;;;;;;;;;;;17.22;57.32;100136.47;2089346;28;19913;-54
2022/03/14 00:59:30;;;;;;;;;;;;;;;17.21;57.15;100133.88;2091823;28;19921;-55
2022/03/14 01:00:30;;;;;;;;;;;;;;;17.21;57.24;100128.44;2089019;28;19971;-55
2022/03/14 01:01:31;;;;;;;;;;;;;;;17.19;57.34;100119.53;2085841;28;19917;-54
2022/03/14 01:02:31;;;;;;;;;;;;;;;17.19;57.40;100119.53;2091524;28;19916;-54
2022/03/14 01:03:32;;;;;;;;;;;;;;;17.17;57.22;100119.66;2089478;28;19920;-55
2022/03/14 01:04:32;;;;;;;;;;;;;;;17.17;57.35;100126.97;2090183;28;19958;-54
2022/03/14 01:05:33;;;;;;;;;;;;;;;17.18;57.12;100128.72;2093266;28;20046;-55
2022/03/14 01:06:34;;;;;;;;;;;;;;;17.17;56.93;100122.38;2090043;28;20360;-54
2022/03/14 01:07:34;;;;;;;;;;;;;;;17.17;57.25;100127.81;2090938;28;19968;-54
2022/03/14 01:08:34;;;;;;;;;;;;;;;17.18;57.08;100123.25;2094666;28;19973;-54
2022/03/14 01:09:35;;;;;;;;;;;;;;;17.18;57.24;100124.13;2088847;28;20238;-54
2022/03/14 01:10:35;;;;;;;;;;;;;;;17.18;57.02;100121.41;2090959;28;20008;-55
2022/03/14 01:11:35;;;;;;;;;;;;;;;17.19;57.29;100122.25;2088588;28;19920;-54
2022/03/14 01:12:35;;;;;;;;;;;;;;;17.16;57.14;100114.38;2092287;28;19925;-55
2022/03/14 01:13:36;;;;;;;;;;;;;;;17.17;56.96;100110.63;2086188;28;19920;-55
2022/03/14 01:14:37;;;;;;;;;;;;;;;17.19;57.25;100114.09;2089396;28;19922;-54
2022/03/14 01:15:37;;;;;;;;;;;;;;;17.20;56.92;100116.69;2090691;28;19991;-54
2022/03/14 01:16:38;;;;;;;;;;;;;;;17.18;57.10;100115.09;2090866;28;19920;-55
2022/03/14 01:17:40;;;;;;;;;;;;;;;17.20;56.86;100115.78;2090835;28;19920;-54
2022/03/14 01:18:40;;;;;;;;;;;;;;;17.19;56.98;100114.09;2088731;28;19913;-55
2022/03/14 01:19:41;;;;;;;;;;;;;;;17.19;56.98;100114.09;2081072;28;19946;-55
2022/03/14 01:20:41;;;;;;;;;;;;;;;17.21;56.89;100106.63;2089000;28;20374;-55
2022/03/14 01:21:42;;;;;;;;;;;;;;;17.21;56.89;100103.91;2091944;28;19962;-54
2022/03/14 01:22:43;;;;;;;;;;;;;;;17.22;56.89;100108.34;2090462;28;19920;-55
2022/03/14 01:23:44;;;;;;;;;;;;;;;17.20;56.89;100111.22;2091323;28;20237;-54
2022/03/14 01:24:44;;;;;;;;;;;;;;;17.22;57.09;100113.78;2089340;28;20094;-55
2022/03/14 01:25:45;;;;;;;;;;;;;;;17.22;56.76;100119.25;2085223;28;19969;-55
2022/03/14 01:26:45;;;;;;;;;;;;;;;17.23;56.81;100110.09;2085956;28;20015;-54
2022/03/14 01:27:46;;;;;;;;;;;;;;;17.23;56.58;100115.53;2095374;28;19931;-54
2022/03/14 01:28:48;;;;;;;;;;;;;;;17.21;56.82;100112.09;2090813;28;20146;-54
2022/03/14 01:29:48;;;;;;;;;;;;;;;17.21;56.93;100112.09;2092219;28;20369;-54
2022/03/14 01:30:48;;;;;;;;;;;;;;;17.21;56.84;100106.63;2084463;28;19920;-55
2022/03/14 01:31:50;;;;;;;;;;;;;;;17.20;56.87;100108.50;2089804;28;19928;-55
2022/03/14 01:32:50;;;;;;;;;;;;;;;17.21;57.00;100106.63;2096879;28;19912;-55
2022/03/14 01:33:51;;;;;;;;;;;;;;;17.22;56.79;100102.91;2084177;28;19931;-55
2022/03/14 01:34:51;;;;;;;;;;;;;;;17.21;56.81;100112.09;2087971;28;19952;-54
2022/03/14 01:35:51;;;;;;;;;;;;;;;17.21;56.78;100112.09;2090877;28;20351;-55
2022/03/14 01:36:52;;;;;;;;;;;;;;;17.22;56.89;100117.41;2088365;28;19927;-54
2022/03/14 01:37:52;;;;;;;;;;;;;;;17.22;56.81;100111.97;2088417;28;20309;-53
2022/03/14 01:38:52;;;;;;;;;;;;;;;17.21;56.78;100110.22;2087221;28;20634;-53
2022/03/14 01:39:53;;;;;;;;;;;;;;;17.21;56.71;100115.66;2088550;28;20223;-54
2022/03/14 01:40:55;;;;;;;;;;;;;;;17.21;56.58;100112.09;2091089;28;20411;-55
2022/03/14 01:41:56;;;;;;;;;;;;;;;17.20;56.76;100121.25;2085575;28;19923;-54
2022/03/14 01:42:56;;;;;;;;;;;;;;;17.19;56.88;100108.63;2094192;28;19916;-55
2022/03/14 01:43:57;;;;;;;;;;;;;;;17.19;56.81;100114.09;2092514;28;19920;-53
2022/03/14 01:44:57;;;;;;;;;;;;;;;17.19;56.64;100108.63;2085665;28;20417;-55
2022/03/14 01:45:58;;;;;;;;;;;;;;;17.18;56.92;100109.66;2085568;28;19913;-54
2022/03/14 01:47:00;;;;;;;;;;;;;;;17.17;56.68;100107.91;2101194;28;19998;-53
2022/03/14 01:48:00;;;;;;;;;;;;;;;17.17;56.71;100116.06;2089660;28;19927;-55
2022/03/14 01:49:01;;;;;;;;;;;;;;;17.17;56.79;100105.19;2094027;28;19908;-54
2022/03/14 01:50:01;;;;;;;;;;;;;;;17.16;57.02;100107.03;2084796;28;20002;-55
2022/03/14 01:51:02;;;;;;;;;;;;;;;17.15;56.97;100102.59;2094812;28;19975;-55
2022/03/14 01:52:05;;;;;;;;;;;;;;;17.14;56.69;100101.72;2092536;28;19924;-54
2022/03/14 01:53:06;;;;;;;;;;;;;;;17.14;56.78;100101.72;2080696;28;19952;-55
2022/03/14 01:54:08;;;;;;;;;;;;;;;17.14;56.91;100101.72;2083067;28;20878;-55
2022/03/14 01:55:08;;;;;;;;;;;;;;;17.14;56.87;100101.72;2090721;28;19917;-54
2022/03/14 01:56:12;;;;;;;;;;;;;;;17.15;56.80;100102.59;2088668;28;19920;-54
2022/03/14 01:57:13;;;;;;;;;;;;;;;17.16;56.86;100103.47;2088605;28;19962;-54
2022/03/14 01:58:15;;;;;;;;;;;;;;;17.15;56.84;100108.06;2084617;28;19923;-55
2022/03/14 01:59:15;;;;;;;;;;;;;;;17.14;56.82;100107.16;2088026;28;20011;-55
2022/03/14 02:00:16;;;;;;;;;;;;;;;17.15;56.84;100110.78;2087623;28;20271;-54
2022/03/14 02:01:16;;;;;;;;;;;;;;;17.14;56.79;100109.91;2099194;28;20381;-54
2022/03/14 02:02:17;;;;;;;;;;;;;;;17.14;56.61;100112.63;2085970;28;19927;-55
2022/03/14 02:03:17;;;;;;;;;;;;;;;17.14;56.71;100114.50;2089722;28;19920;-56
2022/03/14 02:04:18;;;;;;;;;;;;;;;17.14;56.78;100106.31;2091573;28;19916;-54
2022/03/14 02:05:20;;;;;;;;;;;;;;;17.13;56.96;100108.19;2088157;28;20276;-55
2022/03/14 02:06:20;;;;;;;;;;;;;;;17.14;56.91;100104.44;2083975;28;19927;-54
2022/03/14 02:07:21;;;;;;;;;;;;;;;17.14;56.88;100101.72;2095245;28;19962;-55
2022/03/14 02:08:21;;;;;;;;;;;;;;;17.15;56.98;100108.06;2090005;28;20245;-55
2022/03/14 02:09:22;;;;;;;;;;;;;;;17.16;56.84;100104.31;2096389;28;19924;-54
2022/03/14 02:10:22;;;;;;;;;;;;;;;17.16;56.87;100104.31;2088304;28;19989;-55
2022/03/14 02:11:23;;;;;;;;;;;;;;;17.16;56.67;100103.47;2083362;28;19924;-55
2022/03/14 02:12:24;;;;;;;;;;;;;;;17.16;56.64;100108.91;2077700;28;20031;-54
2022/03/14 02:13:24;;;;;;;;;;;;;;;17.16;56.74;100111.63;2088132;28;19927;-55
2022/03/14 02:14:25;;;;;;;;;;;;;;;17.14;56.75;100106.31;2095617;28;20541;-54
2022/03/14 02:15:25;;;;;;;;;;;;;;;17.16;56.78;100114.38;2094182;28;19950;-55
2022/03/14 02:16:26;;;;;;;;;;;;;;;17.17;56.85;100110.63;2086323;28;20286;-55
2022/03/14 02:17:26;;;;;;;;;;;;;;;17.16;56.91;100108.91;2084878;28;20246;-55
2022/03/14 02:18:26;;;;;;;;;;;;;;;17.14;56.91;100101.72;2088617;28;20346;-54
2022/03/14 02:19:27;;;;;;;;;;;;;;;17.17;56.84;100105.19;2093362;28;20450;-54
2022/03/14 02:20:28;;;;;;;;;;;;;;;17.15;56.89;100102.59;2084489;28;20247;-54
2022/03/14 02:21:28;;;;;;;;;;;;;;;17.17;57.02;100100.59;2091803;28;20301;-55
2022/03/14 02:22:28;;;;;;;;;;;;;;;17.17;56.95;100106.03;2086086;28;20293;-55
2022/03/14 02:23:28;;;;;;;;;;;;;;;17.17;56.77;100099.72;2091964;28;19965;-55
2022/03/14 02:24:29;;;;;;;;;;;;;;;17.16;56.93;100093.44;2089077;28;20338;-54
2022/03/14 02:25:31;;;;;;;;;;;;;;;17.15;56.87;100097.16;2084266;28;19974;-54
2022/03/14 02:26:31;;;;;;;;;;;;;;;17.17;56.91;100091.56;2089786;28;19924;-55
2022/03/14 02:27:31;;;;;;;;;;;;;;;17.17;56.84;100094.28;2088099;28;20011;-54
2022/03/14 02:28:32;;;;;;;;;;;;;;;17.16;56.72;100093.44;2089646;28;19916;-54
2022/03/14 02:29:32;;;;;;;;;;;;;;;17.16;56.87;100079.81;2091599;28;19928;-54
2022/03/14 02:30:33;;;;;;;;;;;;;;;17.17;56.77;100083.38;2089996;28;20011;-54
2022/03/14 02:31:36;;;;;;;;;;;;;;;17.16;56.92;100081.69;2088640;28;19927;-54
2022/03/14 02:32:41;;;;;;;;;;;;;;;17.15;56.61;100080.81;2087045;28;19921;-54
2022/03/14 02:33:41;;;;;;;;;;;;;;;17.15;56.80;100075.38;2091042;28;19912;-54
2022/03/14 02:34:41;;;;;;;;;;;;;;;17.15;56.63;100075.38;2087796;28;20413;-54
2022/03/14 02:35:42;;;;;;;;;;;;;;;17.16;56.67;100070.78;2088672;28;19977;-54
2022/03/14 02:36:43;;;;;;;;;;;;;;;17.13;56.83;100078.22;2088981;28;19931;-54
2022/03/14 02:37:44;;;;;;;;;;;;;;;17.13;56.68;100071.91;2088320;28;20659;-54
2022/03/14 02:38:44;;;;;;;;;;;;;;;17.12;56.79;100065.63;2086917;28;19920;-55
2022/03/14 02:39:47;;;;;;;;;;;;;;;17.12;56.65;100067.44;2089681;28;19924;-55
2022/03/14 02:40:48;;;;;;;;;;;;;;;17.12;56.88;100071.06;2089795;28;20489;-54
2022/03/14 02:41:48;;;;;;;;;;;;;;;17.11;56.81;100074.78;2083795;28;20273;-54
2022/03/14 02:42:49;;;;;;;;;;;;;;;17.11;56.80;100082.94;2081879;28;20022;-55
2022/03/14 02:43:49;;;;;;;;;;;;;;;17.11;56.94;100077.50;2089668;28;19972;-55
2022/03/14 02:44:50;;;;;;;;;;;;;;;17.12;56.64;100072.91;2091572;28;19920;-54
2022/03/14 02:45:51;;;;;;;;;;;;;;;17.12;56.66;100078.34;2085630;28;19924;-55
2022/03/14 02:46:51;;;;;;;;;;;;;;;17.12;56.76;100079.22;2091378;28;19917;-55
2022/03/14 02:47:51;;;;;;;;;;;;;;;17.09;56.82;100084.94;2090201;28;19924;-55
2022/03/14 02:48:51;;;;;;;;;;;;;;;17.09;56.75;100076.75;2084845;28;19920;-55
2022/03/14 02:49:52;;;;;;;;;;;;;;;17.09;56.91;100086.81;2083848;28;19928;-55
2022/03/14 02:50:53;;;;;;;;;;;;;;;17.08;56.94;100075.06;2087472;28;20015;-55
2022/03/14 02:51:54;;;;;;;;;;;;;;;17.07;56.86;100076.03;2086500;28;19942;-55
2022/03/14 02:52:54;;;;;;;;;;;;;;;17.07;57.17;100084.19;2090388;28;19919;-55
2022/03/14 02:53:56;;;;;;;;;;;;;;;17.07;56.67;100073.31;2095664;28;19916;-55
2022/03/14 02:54:57;;;;;;;;;;;;;;;17.06;56.76;100076.19;2090269;28;19930;-55
2022/03/14 02:55:57;;;;;;;;;;;;;;;17.05;56.92;100083.50;2090190;28;20234;-55
2022/03/14 02:56:58;;;;;;;;;;;;;;;17.05;57.19;100079.91;2089198;28;19984;-55
2022/03/14 02:57:59;;;;;;;;;;;;;;;17.04;57.01;100078.19;2092411;28;19919;-55
2022/03/14 02:58:59;;;;;;;;;;;;;;;17.03;56.98;100066.44;2089779;28;19926;-55
2022/03/14 02:59:59;;;;;;;;;;;;;;;17.03;56.98;100066.44;2089906;28;20688;-55
2022/03/14 03:01:01;;;;;;;;;;;;;;;17.04;56.91;100068.16;2096912;28;20040;-55
2022/03/14 03:02:02;;;;;;;;;;;;;;;17.04;56.96;100065.41;2091887;28;19927;-55
2022/03/14 03:03:03;;;;;;;;;;;;;;;17.05;56.96;100075.34;2093305;28;19924;-55
2022/03/14 03:04:04;;;;;;;;;;;;;;;17.04;56.97;100073.59;2087860;28;19924;-55
2022/03/14 03:05:05;;;;;;;;;;;;;;;17.06;56.99;100073.47;2081990;28;19924;-55
2022/03/14 03:06:07;;;;;;;;;;;;;;;17.06;57.00;100066.16;2087736;28;19920;-54
2022/03/14 03:07:08;;;;;;;;;;;;;;;17.07;56.80;100073.31;2094980;28;20002;-54
2022/03/14 03:08:09;;;;;;;;;;;;;;;17.08;57.08;100075.06;2087144;28;19924;-55
2022/03/14 03:09:09;;;;;;;;;;;;;;;17.08;56.83;100058.72;2095390;28;20330;-55
2022/03/14 03:10:10;;;;;;;;;;;;;;;17.08;56.84;100066.88;2090964;28;19912;-55
2022/03/14 03:11:11;;;;;;;;;;;;;;;17.09;56.87;100071.31;2079208;28;20464;-54
2022/03/14 03:12:14;;;;;;;;;;;;;;;17.10;56.67;100073.06;2081542;28;19990;-55
2022/03/14 03:13:15;;;;;;;;;;;;;;;17.09;56.81;100070.47;2086093;28;20774;-54
2022/03/14 03:14:15;;;;;;;;;;;;;;;17.09;56.92;100065.00;2092109;28;19927;-54
2022/03/14 03:15:17;;;;;;;;;;;;;;;17.11;56.80;100061.16;2087912;28;20598;-55
2022/03/14 03:16:17;;;;;;;;;;;;;;;17.11;56.54;100072.03;2092457;28;20409;-55
2022/03/14 03:17:21;;;;;;;;;;;;;;;17.11;56.54;100069.31;2088382;28;20159;-54
2022/03/14 03:18:23;;;;;;;;;;;;;;;17.11;56.87;100074.78;2091070;28;19966;-55
2022/03/14 03:19:24;;;;;;;;;;;;;;;17.11;56.58;100069.31;2082387;28;19925;-55
2022/03/14 03:20:25;;;;;;;;;;;;;;;17.10;56.83;100073.06;2083628;28;20018;-55
2022/03/14 03:21:25;;;;;;;;;;;;;;;17.10;56.85;100070.34;2090781;28;19926;-54
2022/03/14 03:22:27;;;;;;;;;;;;;;;17.12;56.71;100075.63;2092271;28;19920;-55
2022/03/14 03:23:28;;;;;;;;;;;;;;;17.11;56.73;100080.22;2088267;28;19920;-55
2022/03/14 03:24:28;;;;;;;;;;;;;;;17.12;56.65;100073.78;2088535;28;20299;-55
2022/03/14 03:25:29;;;;;;;;;;;;;;;17.11;56.88;100074.78;2089840;28;19916;-54
2022/03/14 03:26:29;;;;;;;;;;;;;;;17.11;56.67;100080.22;2087844;28;19947;-54
2022/03/14 03:27:29;;;;;;;;;;;;;;;17.10;56.73;100078.50;2081933;28;20405;-55
2022/03/14 03:28:35;;;;;;;;;;;;;;;17.10;56.78;100077.66;2082334;28;19975;-55
2022/03/14 03:29:36;;;;;;;;;;;;;;;17.10;56.72;100083.09;2096643;28;19920;-54
2022/03/14 03:30:37;;;;;;;;;;;;;;;17.08;56.94;100085.94;2090748;28;19920;-54
2022/03/14 03:31:37;;;;;;;;;;;;;;;17.09;56.89;100082.22;2089738;28;20277;-55
2022/03/14 03:32:37;;;;;;;;;;;;;;;17.08;56.60;100079.66;2092323;28;20015;-57
2022/03/14 03:33:38;;;;;;;;;;;;;;;17.06;56.97;100079.78;2085041;28;20342;-55
2022/03/14 03:34:38;;;;;;;;;;;;;;;17.06;57.08;100085.22;2090196;28;19920;-55
2022/03/14 03:35:38;;;;;;;;;;;;;;;17.07;56.81;100077.91;2091280;28;20685;-54
2022/03/14 03:36:39;;;;;;;;;;;;;;;17.06;56.85;100082.50;2090342;28;19927;-55
2022/03/14 03:37:39;;;;;;;;;;;;;;;17.05;56.83;100086.22;2083056;28;19917;-54
2022/03/14 03:38:40;;;;;;;;;;;;;;;17.05;56.76;100086.22;2083757;28;19927;-53
2022/03/14 03:39:41;;;;;;;;;;;;;;;17.04;56.98;100084.47;2096293;28;20451;-54
2022/03/14 03:40:41;;;;;;;;;;;;;;;17.04;56.82;100084.47;2090563;28;19956;-54
2022/03/14 03:41:41;;;;;;;;;;;;;;;17.03;57.04;100093.66;2088603;28;20889;-54
2022/03/14 03:42:42;;;;;;;;;;;;;;;17.02;56.94;100086.47;2098401;28;20202;-55
2022/03/14 03:43:42;;;;;;;;;;;;;;;17.03;57.00;100092.81;2080813;28;19924;-54
2022/03/14 03:44:43;;;;;;;;;;;;;;;17.02;57.14;100086.47;2078051;28;19965;-55
2022/03/14 03:45:43;;;;;;;;;;;;;;;17.02;56.91;100075.59;2091817;28;20058;-55
2022/03/14 03:46:43;;;;;;;;;;;;;;;17.01;56.95;100090.22;2087910;28;19927;-55
2022/03/14 03:47:44;;;;;;;;;;;;;;;17.01;56.94;100083.91;2097394;28;19944;-55
2022/03/14 03:48:44;;;;;;;;;;;;;;;17.01;57.07;100083.91;2087248;28;19919;-55
2022/03/14 03:49:44;;;;;;;;;;;;;;;17.01;56.93;100081.19;2089924;28;20291;-55
2022/03/14 03:50:45;;;;;;;;;;;;;;;17.01;56.90;100079.31;2096859;28;19966;-55
2022/03/14 03:51:45;;;;;;;;;;;;;;;17.02;56.75;100081.03;2089293;28;19921;-55
2022/03/14 03:52:45;;;;;;;;;;;;;;;17.01;56.66;100079.31;2090083;28;19924;-55
2022/03/14 03:53:46;;;;;;;;;;;;;;;17.02;56.88;100086.47;2091164;28;19920;-55
2022/03/14 03:54:46;;;;;;;;;;;;;;;17.04;56.92;100089.06;2089844;28;19974;-55
2022/03/14 03:55:46;;;;;;;;;;;;;;;17.03;56.87;100087.38;2095372;28;19926;-55
2022/03/14 03:56:47;;;;;;;;;;;;;;;17.04;57.01;100102.69;2090883;28;20004;-55
2022/03/14 03:57:48;;;;;;;;;;;;;;;17.03;56.98;100092.81;2096223;28;20107;-55
2022/03/14 03:58:48;;;;;;;;;;;;;;;17.04;56.88;100100.81;2092069;28;19986;-55
2022/03/14 03:59:49;;;;;;;;;;;;;;;17.04;56.89;100100.81;2090954;28;19930;-55
2022/03/14 04:00:50;;;;;;;;;;;;;;;17.06;56.81;100104.28;2087489;28;19920;-55
2022/03/14 04:01:52;;;;;;;;;;;;;;;17.06;56.64;100103.44;2091520;28;19919;-55
2022/03/14 04:02:53;;;;;;;;;;;;;;;17.05;56.98;100102.56;2089798;28;19928;-55
2022/03/14 04:03:58;;;;;;;;;;;;;;;17.07;56.85;100099.69;2096123;28;19919;-55
2022/03/14 04:04:59;;;;;;;;;;;;;;;17.05;56.79;100102.56;2095979;28;19939;-55
2022/03/14 04:05:59;;;;;;;;;;;;;;;17.08;56.97;100117.78;2091047;28;20358;-55
2022/03/14 04:07:01;;;;;;;;;;;;;;;17.08;56.79;100112.31;2098581;28;19926;-55
2022/03/14 04:08:02;;;;;;;;;;;;;;;17.07;56.81;100111.44;2091824;28;19997;-55
2022/03/14 04:09:03;;;;;;;;;;;;;;;17.07;56.98;100111.44;2089234;28;19965;-54
2022/03/14 04:10:04;;;;;;;;;;;;;;;17.06;57.07;100109.72;2094027;28;19927;-55
2022/03/14 04:11:04;;;;;;;;;;;;;;;17.08;56.92;100109.59;2088666;28;19920;-54
2022/03/14 04:12:05;;;;;;;;;;;;;;;17.05;56.88;100110.75;2095507;28;19955;-55
2022/03/14 04:13:06;;;;;;;;;;;;;;;17.05;57.03;100113.47;2089403;28;19927;-55
2022/03/14 04:14:07;;;;;;;;;;;;;;;17.05;56.90;100118.91;2093948;28;20805;-55
2022/03/14 04:15:09;;;;;;;;;;;;;;;17.05;56.83;100118.03;2091260;28;19927;-55
2022/03/14 04:16:09;;;;;;;;;;;;;;;17.05;57.07;100118.91;2088947;28;20161;-57
2022/03/14 04:17:09;;;;;;;;;;;;;;;17.05;57.21;100113.47;2087737;28;20209;-55
2022/03/14 04:18:10;;;;;;;;;;;;;;;17.05;57.04;100126.19;2092759;28;19923;-55
2022/03/14 04:19:10;;;;;;;;;;;;;;;17.06;56.90;100123.34;2089818;28;20784;-55
2022/03/14 04:20:13;;;;;;;;;;;;;;;17.06;56.89;100122.50;2091320;28;19920;-55
2022/03/14 04:21:14;;;;;;;;;;;;;;;17.05;57.02;100129.81;2087803;28;20039;-55
2022/03/14 04:22:15;;;;;;;;;;;;;;;17.05;56.95;100124.34;2099095;28;19923;-55
2022/03/14 04:23:17;;;;;;;;;;;;;;;17.06;57.11;100119.75;2090121;28;20573;-55
2022/03/14 04:24:17;;;;;;;;;;;;;;;17.05;57.08;100110.75;2091436;28;19943;-55
2022/03/14 04:25:18;;;;;;;;;;;;;;;17.05;57.05;100105.28;2087544;28;19912;-55
2022/03/14 04:26:18;;;;;;;;;;;;;;;17.04;57.20;100103.56;2086982;28;20005;-55
2022/03/14 04:27:18;;;;;;;;;;;;;;;17.04;57.15;100105.41;2096901;28;19919;-56
2022/03/14 04:28:18;;;;;;;;;;;;;;;17.03;57.00;100106.44;2095646;28;19912;-56
2022/03/14 04:29:19;;;;;;;;;;;;;;;17.03;56.91;100099.13;2089086;28;20524;-55
2022/03/14 04:30:19;;;;;;;;;;;;;;;17.03;56.98;100098.25;2093703;28;19920;-56
2022/03/14 04:31:21;;;;;;;;;;;;;;;17.04;56.91;100100.81;2091825;28;19922;-55
2022/03/14 04:32:23;;;;;;;;;;;;;;;17.02;56.91;100091.91;2088553;28;19939;-55
2022/03/14 04:33:23;;;;;;;;;;;;;;;17.03;57.00;100099.13;2093530;28;19920;-56
2022/03/14 04:34:24;;;;;;;;;;;;;;;17.03;57.07;100096.38;2086658;28;20054;-56
2022/03/14 04:35:24;;;;;;;;;;;;;;;17.03;57.16;100093.66;2092364;28;19924;-55
2022/03/14 04:36:24;;;;;;;;;;;;;;;17.00;57.11;100088.50;2091978;28;20674;-55
2022/03/14 04:37:25;;;;;;;;;;;;;;;17.02;57.03;100086.47;2088461;28;20030;-55
2022/03/14 04:38:26;;;;;;;;;;;;;;;17.02;56.91;100089.19;2094376;28;20857;-55
2022/03/14 04:39:26;;;;;;;;;;;;;;;17.00;57.08;100080.34;2086501;28;20174;-55
2022/03/14 04:40:27;;;;;;;;;;;;;;;17.00;57.15;100093.94;2092295;28;20361;-55
2022/03/14 04:41:27;;;;;;;;;;;;;;;17.01;57.03;100082.03;2090128;28;19958;-54
2022/03/14 04:42:27;;;;;;;;;;;;;;;17.00;56.91;100088.50;2093599;28;19919;-55
2022/03/14 04:43:27;;;;;;;;;;;;;;;17.00;57.04;100087.63;2085639;28;19920;-54
2022/03/14 04:44:28;;;;;;;;;;;;;;;16.97;57.25;100080.59;2095416;28;19919;-53
2022/03/14 04:45:29;;;;;;;;;;;;;;;16.98;57.08;100087.78;2095824;28;19927;-55
2022/03/14 04:46:29;;;;;;;;;;;;;;;17.00;56.84;100093.06;2091847;28;19924;-55
2022/03/14 04:47:29;;;;;;;;;;;;;;;17.00;57.15;100093.94;2091119;28;20357;-54
2022/03/14 04:48:30;;;;;;;;;;;;;;;16.99;56.89;100092.22;2088819;28;20617;-55
2022/03/14 04:49:31;;;;;;;;;;;;;;;16.98;57.12;100095.06;2090654;28;19919;-55
2022/03/14 04:50:31;;;;;;;;;;;;;;;16.97;57.13;100088.75;2089893;28;19927;-54
2022/03/14 04:51:32;;;;;;;;;;;;;;;16.97;57.34;100096.91;2083843;28;20362;-55
2022/03/14 04:52:33;;;;;;;;;;;;;;;16.97;57.24;100099.66;2095916;28;19920;-54
2022/03/14 04:53:34;;;;;;;;;;;;;;;16.98;57.08;100101.38;2091346;28;19935;-54
2022/03/14 04:54:35;;;;;;;;;;;;;;;16.99;57.08;100105.81;2089405;28;19983;-55
2022/03/14 04:55:35;;;;;;;;;;;;;;;16.97;56.99;100094.19;2098962;28;20257;-54
2022/03/14 04:56:36;;;;;;;;;;;;;;;16.98;57.15;100101.38;2076477;28;19955;-54
2022/03/14 04:57:36;;;;;;;;;;;;;;;16.98;57.04;100101.38;2084416;28;19920;-55
2022/03/14 04:58:36;;;;;;;;;;;;;;;16.97;57.15;100099.66;2097527;28;19920;-54
2022/03/14 04:59:37;;;;;;;;;;;;;;;16.98;57.27;100105.94;2090489;28;19928;-54
2022/03/14 05:00:37;;;;;;;;;;;;;;;16.98;57.10;100108.66;2089026;28;20438;-55
2022/03/14 05:01:38;;;;;;;;;;;;;;;17.00;56.99;100109.41;2090540;28;19989;-54
2022/03/14 05:02:38;;;;;;;;;;;;;;;17.00;57.09;100113.00;2091850;28;19965;-55
2022/03/14 05:03:39;;;;;;;;;;;;;;;17.01;56.99;100112.00;2087071;28;19941;-55
2022/03/14 05:04:39;;;;;;;;;;;;;;;17.02;57.13;100113.72;2084504;28;20415;-55
2022/03/14 05:05:40;;;;;;;;;;;;;;;17.04;57.10;100119.03;2088686;28;20283;-55
2022/03/14 05:06:40;;;;;;;;;;;;;;;17.02;56.89;100119.16;2090472;28;19932;-55
2022/03/14 05:07:41;;;;;;;;;;;;;;;17.04;56.98;100113.59;2088069;28;19947;-55
2022/03/14 05:08:41;;;;;;;;;;;;;;;17.05;56.96;100126.19;2088272;28;20012;-55
2022/03/14 05:09:42;;;;;;;;;;;;;;;17.05;56.98;100123.47;2083938;28;20354;-55
2022/03/14 05:10:42;;;;;;;;;;;;;;;17.05;57.00;100118.91;2085270;28;19920;-55
2022/03/14 05:11:42;;;;;;;;;;;;;;;17.05;56.98;100124.34;2090328;28;19931;-55